createdAt,value
2023-10-09T00:02:45.215Z,6.16
2023-10-09T00:07:49.496Z,6.24
2023-10-09T00:12:53.852Z,6.16
2023-10-09T00:18:00.554Z,6.18
2023-10-09T00:23:13.125Z,6.12
2023-10-09T00:28:26.054Z,6.11
2023-10-09T00:33:31.428Z,6.06
2023-10-09T00:38:55.125Z,6.02
2023-10-09T00:44:01.230Z,5.94
2023-10-09T00:49:11.964Z,5.92
2023-10-09T00:54:21.256Z,5.85
2023-10-09T00:59:27.730Z,5.80
2023-10-09T01:04:34.030Z,5.80
2023-10-09T01:09:39.990Z,5.79
2023-10-09T01:14:47.191Z,5.66
2023-10-09T01:19:57.123Z,5.62
2023-10-09T01:25:09.262Z,5.55
2023-10-09T01:30:17.973Z,5.58
2023-10-09T01:35:23.668Z,5.56
2023-10-09T01:40:39.061Z,5.56
2023-10-09T01:45:48.261Z,5.48
2023-10-09T01:50:55.285Z,5.44
2023-10-09T01:56:01.101Z,5.43
2023-10-09T02:01:06.488Z,5.40
2023-10-09T02:06:29.749Z,5.32
2023-10-09T02:11:48.757Z,5.32
2023-10-09T02:17:14.919Z,5.27
2023-10-09T02:22:21.300Z,5.26
2023-10-09T02:27:58.755Z,5.17
2023-10-09T02:33:11.123Z,5.24
2023-10-09T02:38:16.756Z,5.21
2023-10-09T02:43:22.710Z,5.20
2023-10-09T02:48:29.074Z,5.18
2023-10-09T02:53:36.809Z,5.20
2023-10-09T02:58:42.553Z,5.22
2023-10-09T03:03:49.495Z,5.23
2023-10-09T03:08:56.322Z,5.27
2023-10-09T03:14:01.801Z,5.32
2023-10-09T03:19:07.358Z,5.36
2023-10-09T03:24:13.495Z,5.63
2023-10-09T03:29:21.210Z,5.89
2023-10-09T03:34:26.243Z,6.28
2023-10-09T03:39:43.953Z,6.67
2023-10-09T03:44:55.649Z,6.98
2023-10-09T03:50:08.284Z,7.28
2023-10-09T03:55:13.454Z,7.74
2023-10-09T04:00:19.162Z,7.94
2023-10-09T04:05:24.617Z,8.33
2023-10-09T04:10:47.294Z,8.53
2023-10-09T04:15:55.005Z,8.65
2023-10-09T04:21:19.066Z,8.51
2023-10-09T04:26:29.716Z,8.42
2023-10-09T04:31:39.015Z,8.60
2023-10-09T04:36:58.557Z,8.68
2023-10-09T04:42:23.425Z,8.85
2023-10-09T04:47:40.624Z,9.09
2023-10-09T04:52:45.229Z,9.62
2023-10-09T04:58:25.256Z,10.60
2023-10-09T05:03:31.546Z,11.35
2023-10-09T05:08:47.635Z,11.90
2023-10-09T05:14:13.613Z,12.10
2023-10-09T05:19:43.467Z,12.69
2023-10-09T05:24:48.842Z,13.00
2023-10-09T05:30:14.658Z,13.02
2023-10-09T05:35:21.880Z,13.00
2023-10-09T05:40:32.671Z,12.75
2023-10-09T05:46:06.038Z,12.06
2023-10-09T05:51:36.232Z,11.61
2023-10-09T05:56:59.451Z,11.21
2023-10-09T06:08:08.855Z,10.43
2023-10-09T06:13:33.051Z,11.25
2023-10-09T06:18:37.532Z,10.94
2023-10-09T06:24:03.054Z,10.77
2023-10-09T06:29:16.345Z,10.84
2023-10-09T06:34:22.695Z,10.79
2023-10-09T06:46:24.211Z,10.82
2023-10-09T06:51:28.629Z,10.87
2023-10-09T07:48:26.751Z,11.13
2023-10-09T07:53:44.796Z,11.22
2023-10-09T07:58:49.655Z,11.41
2023-10-09T08:04:14.450Z,11.47
2023-10-09T08:09:23.069Z,11.72
2023-10-09T08:14:37.059Z,11.78
2023-10-09T08:19:57.056Z,12.10
2023-10-09T08:25:01.428Z,12.07
2023-10-09T08:30:30.100Z,12.12
2023-10-09T08:35:58.495Z,12.23
2023-10-09T08:41:24.703Z,12.49
2023-10-09T08:46:30.138Z,12.27
2023-10-09T08:51:37.134Z,12.67
2023-10-09T08:57:01.359Z,12.87
2023-10-09T09:02:05.663Z,12.82
2023-10-09T09:07:33.385Z,13.29
2023-10-09T09:12:42.151Z,13.07
2023-10-09T09:17:47.296Z,12.87
2023-10-09T09:23:01.009Z,12.66
2023-10-09T09:28:14.216Z,12.51
2023-10-09T09:33:41.448Z,12.54
2023-10-09T09:38:52.418Z,12.44
2023-10-09T09:44:03.301Z,12.45
2023-10-09T09:49:18.503Z,12.49
2023-10-09T09:54:26.468Z,12.25
2023-10-09T09:59:37.160Z,11.80
2023-10-09T10:04:43.604Z,11.72
2023-10-09T10:09:50.448Z,11.72
2023-10-09T10:15:00.949Z,11.72
2023-10-09T10:20:26.960Z,11.18
2023-10-09T10:25:50.944Z,11.07
2023-10-09T10:30:56.503Z,11.22
2023-10-09T10:41:57.126Z,10.96
2023-10-09T10:47:01.439Z,11.17
2023-10-09T10:52:20.680Z,11.18
2023-10-09T10:57:30.286Z,11.07
2023-10-09T11:02:39.535Z,10.73
2023-10-09T11:07:45.896Z,10.79
2023-10-09T11:12:53.896Z,10.77
2023-10-09T11:18:27.316Z,10.78
2023-10-09T11:23:37.461Z,10.73
2023-10-09T11:28:50.492Z,10.81
2023-10-09T11:33:55.555Z,10.73
2023-10-09T11:39:17.284Z,10.80
2023-10-09T11:44:41.158Z,10.49
2023-10-09T11:50:03.727Z,10.63
2023-10-09T11:55:17.301Z,10.57
2023-10-09T12:00:31.249Z,10.74
2023-10-09T12:05:35.549Z,10.66
2023-10-09T12:10:40.378Z,10.60
2023-10-09T12:15:48.322Z,10.74
2023-10-09T12:20:53.586Z,10.71
2023-10-09T12:25:58.309Z,10.66
2023-10-09T12:31:02.957Z,10.56
2023-10-09T12:36:07.307Z,10.57
2023-10-09T12:41:35.159Z,10.70
2023-10-09T12:46:40.048Z,10.65
2023-10-09T12:51:45.517Z,10.55
2023-10-09T12:56:52.011Z,10.53
2023-10-09T13:02:00.649Z,10.36
2023-10-09T13:07:07.852Z,10.30
2023-10-09T13:12:20.145Z,10.32
2023-10-09T13:17:28.697Z,10.22
2023-10-09T13:22:33.358Z,10.14
2023-10-09T13:27:40.104Z,10.18
2023-10-09T13:32:50.960Z,10.05
2023-10-09T13:37:58.142Z,10.06
2023-10-09T13:43:02.234Z,10.11
2023-10-09T13:48:14.549Z,10.11
2023-10-09T13:53:20.702Z,10.02
2023-10-09T13:58:26.113Z,9.94
2023-10-09T14:03:31.620Z,9.97
2023-10-09T14:08:37.220Z,9.72
2023-10-09T14:13:42.778Z,9.80
2023-10-09T14:18:48.388Z,9.79
2023-10-09T14:23:58.835Z,9.79
2023-10-09T14:29:10.129Z,9.68
2023-10-09T14:34:15.804Z,9.47
2023-10-09T14:39:21.464Z,9.36
2023-10-09T14:44:32.843Z,9.42
2023-10-09T14:49:48.760Z,9.39
2023-10-09T14:54:54.252Z,9.44
2023-10-09T15:00:01.105Z,9.46
2023-10-09T15:05:13.663Z,9.43
2023-10-09T15:10:19.834Z,9.27
2023-10-09T15:15:27.441Z,9.17
2023-10-09T15:20:33.329Z,9.11
2023-10-09T15:25:41.177Z,9.19
2023-10-09T15:30:49.159Z,9.24
2023-10-09T15:35:54.415Z,9.26
2023-10-09T15:41:01.611Z,9.33
2023-10-09T15:46:17.519Z,9.13
2023-10-09T15:51:23.782Z,9.31
2023-10-09T15:56:29.591Z,9.35
2023-10-09T16:01:37.346Z,9.45
2023-10-09T16:06:43.171Z,9.43
2023-10-09T16:11:49.063Z,9.37
2023-10-09T16:16:57.198Z,9.33
2023-10-09T16:22:05.729Z,9.41
2023-10-09T16:27:12.580Z,9.41
2023-10-09T16:32:20.763Z,9.42
2023-10-09T16:37:26.463Z,9.39
2023-10-09T16:42:34.618Z,9.36
2023-10-09T16:47:40.741Z,9.29
2023-10-09T16:52:46.797Z,9.29
2023-10-09T16:57:52.811Z,9.35
2023-10-09T17:02:58.862Z,9.32
2023-10-09T17:08:16.180Z,9.25
2023-10-09T17:13:27.524Z,9.22
2023-10-09T17:18:33.651Z,9.18
2023-10-09T17:23:39.134Z,9.17
2023-10-09T17:28:45.330Z,9.25
2023-10-09T17:33:50.713Z,9.20
2023-10-09T17:38:56.859Z,9.33
2023-10-09T17:44:05.107Z,9.34
2023-10-09T17:49:10.503Z,9.42
2023-10-09T17:54:16.667Z,9.38
2023-10-09T17:59:22.208Z,9.25
2023-10-09T18:04:27.602Z,9.25
2023-10-09T18:09:34.500Z,9.27
2023-10-09T18:14:40.390Z,9.30
2023-10-09T18:19:45.727Z,9.33
2023-10-09T18:24:51.447Z,9.26
2023-10-09T18:29:59.324Z,9.34
2023-10-09T18:35:04.924Z,9.45
2023-10-09T18:40:14.044Z,9.31
2023-10-09T18:45:21.441Z,9.07
2023-10-09T18:50:26.972Z,8.96
2023-10-09T18:55:38.562Z,8.79
2023-10-09T19:00:51.809Z,8.76
2023-10-09T19:06:00.104Z,8.57
2023-10-09T19:11:11.183Z,8.46
2023-10-09T19:16:16.682Z,8.48
2023-10-09T19:21:24.237Z,8.43
2023-10-09T19:26:37.142Z,8.32
2023-10-09T19:31:44.565Z,8.32
2023-10-09T19:36:49.911Z,8.24
2023-10-09T19:41:55.208Z,8.32
2023-10-09T19:47:00.564Z,8.35
2023-10-09T19:52:07.272Z,8.34
2023-10-09T19:57:12.559Z,8.27
2023-10-09T20:02:18.562Z,8.27
2023-10-09T20:07:23.877Z,8.21
2023-10-09T20:12:31.308Z,8.22
2023-10-09T20:17:36.680Z,8.19
2023-10-09T20:22:42.361Z,8.17
2023-10-09T20:27:47.780Z,8.09
2023-10-09T20:32:56.135Z,8.14
2023-10-09T20:38:03.342Z,8.09
2023-10-09T20:43:08.656Z,8.08
2023-10-09T20:48:19.653Z,8.10
2023-10-09T20:53:27.193Z,8.11
2023-10-09T20:58:33.243Z,8.08
2023-10-09T21:03:39.234Z,8.09
2023-10-09T21:08:46.399Z,8.14
2023-10-09T21:13:51.397Z,8.22
2023-10-09T21:18:57.504Z,8.24
2023-10-09T21:24:02.879Z,8.28
2023-10-09T21:29:08.256Z,8.38
2023-10-09T21:34:13.909Z,8.36
2023-10-09T21:39:19.575Z,8.37
2023-10-09T21:44:26.598Z,8.36
2023-10-09T21:49:31.482Z,8.44
2023-10-09T21:54:36.788Z,8.49
2023-10-09T21:59:42.457Z,8.55
2023-10-09T22:04:48.573Z,8.59
2023-10-09T22:09:55.299Z,8.54
2023-10-09T22:15:10.088Z,8.65
2023-10-09T22:20:23.474Z,8.61
2023-10-09T22:25:34.874Z,8.57
2023-10-09T22:30:42.090Z,8.63
2023-10-09T22:35:47.739Z,8.59
2023-10-09T22:40:53.199Z,8.61
2023-10-09T22:45:58.663Z,8.61
2023-10-09T22:51:14.262Z,8.67
2023-10-09T22:56:25.615Z,8.68
2023-10-09T23:01:33.900Z,8.63
2023-10-09T23:06:44.397Z,8.70
2023-10-09T23:11:58.174Z,8.58
2023-10-09T23:17:03.633Z,8.64
2023-10-09T23:22:36.662Z,8.66
2023-10-09T23:27:44.590Z,8.75
2023-10-09T23:32:50.556Z,8.69
2023-10-09T23:38:17.053Z,8.65
2023-10-09T23:43:32.206Z,8.67
2023-10-09T23:48:39.106Z,8.67
2023-10-09T23:53:50.828Z,8.70
2023-10-09T23:58:57.142Z,8.80
